createdAt,value
2022-12-14T00:00:12.354Z,14.27
2022-12-14T00:02:40.881Z,11.70
2022-12-14T00:05:09.952Z,13.03
2022-12-14T00:07:39.350Z,11.40
2022-12-14T00:10:07.953Z,11.77
2022-12-14T00:12:35.951Z,13.30
2022-12-14T00:15:04.058Z,10.43
2022-12-14T00:17:32.164Z,10.13
2022-12-14T00:20:00.153Z,10.20
2022-12-14T00:22:28.274Z,11.43
2022-12-14T00:24:57.534Z,12.47
2022-12-14T00:27:25.884Z,11.30
2022-12-14T00:29:53.875Z,11.43
2022-12-14T00:32:21.847Z,11.67
2022-12-14T00:34:49.794Z,11.00
2022-12-14T00:37:18.258Z,11.30
2022-12-14T00:39:46.279Z,11.20
2022-12-14T00:42:15.564Z,10.37
2022-12-14T00:44:43.534Z,9.23
2022-12-14T00:47:11.602Z,11.37
2022-12-14T00:49:39.654Z,10.43
2022-12-14T00:52:07.603Z,10.13
2022-12-14T00:54:35.591Z,11.13
2022-12-14T00:57:03.510Z,9.90
2022-12-14T00:59:32.805Z,10.53
2022-12-14T01:02:00.915Z,10.30
2022-12-14T01:04:29.383Z,10.33
2022-12-14T01:06:57.469Z,10.73
2022-12-14T01:09:26.656Z,10.63
2022-12-14T01:11:54.712Z,9.37
2022-12-14T01:14:23.253Z,10.60
2022-12-14T01:16:52.587Z,11.33
2022-12-14T01:19:20.789Z,12.10
2022-12-14T01:21:48.802Z,9.57
2022-12-14T01:24:16.818Z,9.23
2022-12-14T01:26:44.804Z,10.47
2022-12-14T01:29:12.973Z,11.37
2022-12-14T01:31:41.110Z,10.27
2022-12-14T01:34:11.146Z,10.77
2022-12-14T01:36:40.265Z,10.63
2022-12-14T01:39:10.491Z,10.67
2022-12-14T01:41:40.047Z,9.97
2022-12-14T01:44:41.265Z,9.93
2022-12-14T01:47:13.323Z,9.57
2022-12-14T01:49:45.099Z,10.67
2022-12-14T01:52:17.882Z,10.67
2022-12-14T01:54:50.617Z,10.13
2022-12-14T01:57:20.625Z,10.73
2022-12-14T01:59:49.330Z,10.80
2022-12-14T02:02:18.825Z,11.27
2022-12-14T02:04:51.720Z,9.53
2022-12-14T02:07:19.793Z,10.97
2022-12-14T02:09:48.310Z,8.47
2022-12-14T02:12:20.045Z,9.23
2022-12-14T02:14:48.473Z,10.20
2022-12-14T02:17:16.828Z,9.67
2022-12-14T02:19:46.802Z,11.10
2022-12-14T02:22:33.583Z,9.37
2022-12-14T02:25:18.717Z,9.00
2022-12-14T02:28:00.394Z,10.03
2022-12-14T02:30:34.872Z,10.57
2022-12-14T02:33:10.755Z,10.17
2022-12-14T02:35:44.077Z,9.30
2022-12-14T02:38:22.588Z,11.57
2022-12-14T02:41:01.259Z,10.30
2022-12-14T02:43:32.525Z,10.70
2022-12-14T02:46:08.402Z,8.83
2022-12-14T02:48:39.950Z,12.37
2022-12-14T02:51:19.441Z,9.63
2022-12-14T02:53:51.141Z,9.27
2022-12-14T02:56:25.654Z,9.63
2022-12-14T02:58:53.850Z,9.93
2022-12-14T03:01:25.161Z,9.70
2022-12-14T03:03:53.367Z,10.07
2022-12-14T03:06:26.940Z,10.73
2022-12-14T03:08:57.826Z,10.07
2022-12-14T03:11:30.308Z,11.30
2022-12-14T03:14:02.569Z,10.77
2022-12-14T03:16:33.452Z,11.03
2022-12-14T03:19:03.403Z,10.00
2022-12-14T03:21:33.798Z,8.80
2022-12-14T03:24:05.326Z,10.30
2022-12-14T03:26:36.124Z,9.83
2022-12-14T03:29:08.195Z,10.10
2022-12-14T03:31:41.666Z,10.80
2022-12-14T03:34:13.123Z,12.00
2022-12-14T03:36:43.972Z,8.83
2022-12-14T03:39:16.219Z,9.77
2022-12-14T03:41:49.057Z,10.27
2022-12-14T03:44:25.241Z,11.07
2022-12-14T03:46:59.706Z,8.87
2022-12-14T03:49:39.717Z,11.07
2022-12-14T03:52:10.463Z,9.20
2022-12-14T03:54:53.759Z,10.87
2022-12-14T03:57:27.280Z,9.73
2022-12-14T04:00:02.451Z,11.37
2022-12-14T04:02:45.238Z,8.43
2022-12-14T04:05:17.955Z,9.90
2022-12-14T04:07:52.469Z,10.67
2022-12-14T04:10:40.321Z,8.87
2022-12-14T04:13:29.272Z,8.87
2022-12-14T04:16:22.098Z,10.07
2022-12-14T04:19:00.471Z,8.83
2022-12-14T04:21:39.131Z,11.70
2022-12-14T04:24:29.030Z,9.13
2022-12-14T04:27:00.466Z,8.80
2022-12-14T04:29:48.001Z,11.73
2022-12-14T04:32:19.399Z,9.97
2022-12-14T04:34:52.046Z,8.27
2022-12-14T04:37:22.422Z,8.07
2022-12-14T04:39:53.221Z,9.93
2022-12-14T04:42:24.889Z,10.93
2022-12-14T04:44:55.420Z,9.40
2022-12-14T04:47:28.683Z,9.60
2022-12-14T04:50:02.448Z,9.03
2022-12-14T04:52:33.890Z,9.83
2022-12-14T04:55:06.501Z,9.00
2022-12-14T04:57:41.632Z,12.40
2022-12-14T05:00:11.105Z,9.47
2022-12-14T05:02:52.927Z,8.10
2022-12-14T05:05:27.096Z,9.70
2022-12-14T05:07:59.733Z,11.33
2022-12-14T05:10:33.934Z,11.40
2022-12-14T05:13:04.546Z,10.30
2022-12-14T05:15:35.793Z,11.50
2022-12-14T05:18:05.021Z,9.30
2022-12-14T05:20:34.425Z,9.93
2022-12-14T05:23:02.610Z,10.63
2022-12-14T05:25:30.629Z,9.87
2022-12-14T05:27:58.618Z,11.43
2022-12-14T05:30:26.661Z,8.67
2022-12-14T05:32:54.813Z,9.93
2022-12-14T05:35:22.834Z,10.03
2022-12-14T05:37:52.206Z,9.47
2022-12-14T05:40:20.273Z,10.53
2022-12-14T05:42:53.853Z,10.13
2022-12-14T05:45:23.621Z,11.70
2022-12-14T05:47:51.554Z,7.93
2022-12-14T05:50:19.506Z,9.57
2022-12-14T05:52:47.474Z,10.73
2022-12-14T05:55:17.067Z,9.70
2022-12-14T05:57:45.186Z,9.23
2022-12-14T06:00:13.988Z,11.40
2022-12-14T06:02:42.176Z,9.50
2022-12-14T06:05:10.587Z,10.27
2022-12-14T06:07:38.639Z,10.57
2022-12-14T06:10:07.291Z,10.53
2022-12-14T06:12:36.645Z,11.10
2022-12-14T06:15:04.988Z,10.13
2022-12-14T06:17:32.958Z,9.97
2022-12-14T06:20:00.959Z,8.73
2022-12-14T06:22:28.913Z,11.27
2022-12-14T06:24:57.102Z,10.47
2022-12-14T06:27:25.176Z,10.13
2022-12-14T06:29:54.569Z,9.87
2022-12-14T06:32:22.664Z,10.73
2022-12-14T06:34:50.621Z,12.00
2022-12-14T06:37:18.991Z,10.97
2022-12-14T06:39:53.914Z,9.57
2022-12-14T06:42:22.361Z,13.33
2022-12-14T06:44:50.678Z,10.63
2022-12-14T06:47:20.201Z,12.17
2022-12-14T06:49:48.239Z,12.43
2022-12-14T06:52:18.012Z,11.47
2022-12-14T06:54:48.977Z,11.20
2022-12-14T06:57:16.926Z,11.03
2022-12-14T06:59:45.019Z,11.73
2022-12-14T07:02:13.115Z,11.83
2022-12-14T07:04:44.182Z,11.17
2022-12-14T07:07:12.236Z,11.00
2022-12-14T07:09:40.394Z,9.53
2022-12-14T07:12:08.437Z,11.47
2022-12-14T07:14:36.571Z,10.33
2022-12-14T07:17:04.665Z,10.20
2022-12-14T07:19:32.619Z,9.57
2022-12-14T07:22:04.188Z,10.27
2022-12-14T07:24:32.215Z,10.83
2022-12-14T07:27:00.376Z,10.63
2022-12-14T07:29:34.121Z,9.93
2022-12-14T07:32:02.694Z,10.10
2022-12-14T07:34:30.639Z,10.27
2022-12-14T07:36:58.640Z,13.60
2022-12-14T07:39:28.046Z,11.70
2022-12-14T07:41:56.235Z,11.40
2022-12-14T07:44:24.190Z,8.97
2022-12-14T07:46:52.367Z,10.03
2022-12-14T07:49:20.794Z,11.77
2022-12-14T07:51:48.902Z,9.07
2022-12-14T07:54:17.085Z,10.00
2022-12-14T07:56:46.427Z,10.20
2022-12-14T07:59:16.194Z,9.17
2022-12-14T08:01:44.815Z,10.23
2022-12-14T08:04:14.147Z,10.80
2022-12-14T08:06:42.713Z,11.40
2022-12-14T08:09:11.973Z,11.23
2022-12-14T08:11:40.661Z,8.97
2022-12-14T08:14:17.144Z,11.57
2022-12-14T08:16:46.237Z,9.33
2022-12-14T08:19:49.808Z,10.57
2022-12-14T08:22:18.074Z,9.30
2022-12-14T08:24:49.642Z,11.53
2022-12-14T08:27:17.951Z,10.63
2022-12-14T08:29:50.488Z,9.73
2022-12-14T08:32:19.137Z,10.63
2022-12-14T08:34:47.316Z,11.33
2022-12-14T08:37:15.540Z,9.40
2022-12-14T08:39:43.649Z,12.57
2022-12-14T08:42:18.135Z,12.93
2022-12-14T08:44:47.699Z,10.53
2022-12-14T08:47:18.077Z,13.60
2022-12-14T08:49:46.176Z,11.37
2022-12-14T08:52:14.285Z,11.13
2022-12-14T08:54:42.489Z,12.10
2022-12-14T08:57:10.609Z,13.03
2022-12-14T09:00:00.662Z,11.57
2022-12-14T09:02:28.882Z,11.40
2022-12-14T09:04:56.991Z,11.17
2022-12-14T09:07:25.039Z,10.47
2022-12-14T09:09:52.995Z,14.40
2022-12-14T09:12:20.984Z,14.83
2022-12-14T09:14:49.665Z,12.20
2022-12-14T09:17:18.558Z,11.60
2022-12-14T09:19:47.875Z,10.97
2022-12-14T09:22:15.867Z,10.70
2022-12-14T09:24:43.880Z,12.53
2022-12-14T09:27:11.862Z,12.47
2022-12-14T09:29:39.850Z,13.30
2022-12-14T09:32:07.885Z,13.37
2022-12-14T09:34:36.182Z,10.77
2022-12-14T09:37:07.711Z,13.93
2022-12-14T09:39:36.816Z,12.97
2022-12-14T09:42:20.454Z,14.47
2022-12-14T09:44:58.192Z,13.63
2022-12-14T09:47:30.029Z,15.83
2022-12-14T09:50:00.018Z,16.50
2022-12-14T09:52:35.916Z,13.40
2022-12-14T09:55:05.561Z,14.90
2022-12-14T09:57:36.502Z,16.47
2022-12-14T10:00:05.614Z,14.50
2022-12-14T10:02:46.242Z,12.83
2022-12-14T10:05:24.812Z,14.43
2022-12-14T10:08:02.662Z,14.83
2022-12-14T10:10:35.630Z,14.50
2022-12-14T10:13:07.628Z,14.43
2022-12-14T10:15:41.461Z,14.37
2022-12-14T10:18:58.156Z,13.57
2022-12-14T10:21:20.971Z,15.43
2022-12-14T10:23:54.685Z,13.40
2022-12-14T10:26:25.904Z,17.97
2022-12-14T10:29:01.230Z,15.17
2022-12-14T10:31:34.926Z,17.60
2022-12-14T10:34:12.403Z,16.33
2022-12-14T10:36:48.457Z,14.23
2022-12-14T10:39:23.607Z,15.00
2022-12-14T10:41:56.091Z,15.07
2022-12-14T10:44:27.558Z,15.50
2022-12-14T10:47:00.907Z,14.53
2022-12-14T10:49:33.407Z,18.87
2022-12-14T10:52:03.877Z,21.33
2022-12-14T10:54:37.290Z,24.77
2022-12-14T10:57:05.581Z,18.80
2022-12-14T10:59:42.412Z,27.43
2022-12-14T11:02:18.046Z,16.73
2022-12-14T11:04:49.847Z,18.73
2022-12-14T11:07:20.127Z,19.10
2022-12-14T11:09:49.564Z,20.20
2022-12-14T11:12:21.365Z,25.13
2022-12-14T11:14:55.206Z,18.83
2022-12-14T11:17:37.616Z,16.60
2022-12-14T11:20:08.283Z,16.40
2022-12-14T11:22:45.662Z,15.83
2022-12-14T11:25:40.264Z,18.77
2022-12-14T11:28:36.045Z,16.13
2022-12-14T11:31:07.669Z,15.80
2022-12-14T11:34:01.281Z,16.53
2022-12-14T11:36:38.132Z,15.27
2022-12-14T11:39:07.856Z,14.83
2022-12-14T11:41:38.660Z,15.93
2022-12-14T11:44:22.274Z,15.27
2022-12-14T11:46:54.708Z,13.90
2022-12-14T11:49:26.540Z,14.83
2022-12-14T11:52:00.264Z,17.73
2022-12-14T11:54:28.680Z,14.93
2022-12-14T11:57:01.614Z,18.30
2022-12-14T11:59:34.487Z,17.00
2022-12-14T12:02:10.603Z,15.27
2022-12-14T12:04:44.785Z,15.87
2022-12-14T12:07:15.166Z,16.03
2022-12-14T12:09:43.495Z,18.17
2022-12-14T12:12:18.913Z,16.20
2022-12-14T12:14:47.839Z,14.63
2022-12-14T12:17:20.561Z,16.67
2022-12-14T12:19:51.482Z,14.37
2022-12-14T12:22:20.449Z,13.90
2022-12-14T12:25:24.111Z,17.27
2022-12-14T12:27:48.060Z,16.70
2022-12-14T12:30:21.771Z,21.67
2022-12-14T12:32:52.068Z,15.73
2022-12-14T12:35:22.759Z,14.40
2022-12-14T12:37:52.293Z,16.83
2022-12-14T12:40:24.133Z,18.47
2022-12-14T12:42:57.080Z,16.77
2022-12-14T12:45:27.792Z,17.40
2022-12-14T12:47:57.504Z,17.50
2022-12-14T12:50:30.565Z,16.70
2022-12-14T12:53:03.535Z,15.07
2022-12-14T12:55:33.280Z,20.07
2022-12-14T12:58:03.894Z,15.27
2022-12-14T13:00:33.350Z,18.70
2022-12-14T13:03:03.536Z,16.50
2022-12-14T13:05:48.718Z,18.63
2022-12-14T13:08:24.653Z,18.07
2022-12-14T13:11:24.415Z,20.93
2022-12-14T13:13:47.013Z,14.67
2022-12-14T13:16:21.460Z,16.37
2022-12-14T13:19:08.950Z,21.87
2022-12-14T13:21:49.657Z,16.73
2022-12-14T13:24:19.990Z,16.07
2022-12-14T13:27:01.290Z,16.87
2022-12-14T13:29:40.477Z,13.83
2022-12-14T13:32:15.992Z,17.33
2022-12-14T13:34:53.343Z,13.40
2022-12-14T13:37:43.174Z,15.03
2022-12-14T13:40:33.995Z,15.03
2022-12-14T13:43:11.046Z,19.60
2022-12-14T13:45:43.339Z,15.47
2022-12-14T13:48:21.004Z,15.43
2022-12-14T13:51:01.447Z,16.23
2022-12-14T13:53:33.781Z,16.37
2022-12-14T13:56:02.705Z,15.07
2022-12-14T13:58:35.215Z,19.27
2022-12-14T14:01:08.616Z,16.00
2022-12-14T14:03:52.205Z,15.67
2022-12-14T14:06:37.431Z,16.13
2022-12-14T14:09:59.723Z,16.60
2022-12-14T14:12:46.103Z,17.47
2022-12-14T14:15:28.470Z,20.07
2022-12-14T14:18:07.238Z,19.30
2022-12-14T14:20:41.150Z,17.07
2022-12-14T14:23:32.094Z,17.43
2022-12-14T14:26:17.553Z,20.00
2022-12-14T14:28:49.479Z,19.00
2022-12-14T14:31:17.802Z,19.50
2022-12-14T14:33:49.647Z,18.93
2022-12-14T14:36:21.522Z,16.10
2022-12-14T14:38:50.700Z,15.23
2022-12-14T14:41:24.187Z,16.07
2022-12-14T14:43:54.306Z,19.23
2022-12-14T14:46:33.906Z,17.53
2022-12-14T14:49:03.871Z,16.20
2022-12-14T14:51:39.055Z,18.60
2022-12-14T14:57:34.628Z,17.23
2022-12-14T15:00:04.921Z,18.23
2022-12-14T15:02:35.238Z,17.67
2022-12-14T15:05:33.405Z,19.10
2022-12-14T15:07:55.482Z,21.37
2022-12-14T15:10:33.258Z,17.83
2022-12-14T15:13:04.139Z,17.87
2022-12-14T15:15:37.315Z,18.27
2022-12-14T15:18:18.956Z,19.40
2022-12-14T15:20:56.257Z,18.67
2022-12-14T15:23:25.726Z,21.63
2022-12-14T15:25:59.423Z,21.30
2022-12-14T15:28:29.121Z,28.40
2022-12-14T15:31:00.536Z,28.77
2022-12-14T15:33:32.236Z,26.43
2022-12-14T15:36:06.135Z,21.00
2022-12-14T15:38:37.587Z,22.83
2022-12-14T15:41:17.192Z,23.33
2022-12-14T15:43:48.916Z,19.63
2022-12-14T15:46:20.033Z,21.17
2022-12-14T15:48:48.552Z,20.17
2022-12-14T15:51:18.901Z,18.93
2022-12-14T15:53:50.313Z,17.50
2022-12-14T15:56:30.766Z,19.23
2022-12-14T15:59:00.759Z,20.33
2022-12-14T16:01:32.579Z,19.03
2022-12-14T16:04:05.174Z,18.07
2022-12-14T16:06:40.128Z,20.10
2022-12-14T16:09:13.769Z,19.50
2022-12-14T16:11:44.627Z,23.93
2022-12-14T16:14:19.710Z,19.93
2022-12-14T16:16:48.126Z,24.13
2022-12-14T16:19:27.217Z,23.37
2022-12-14T16:22:23.870Z,21.83
2022-12-14T16:25:02.555Z,25.83
2022-12-14T16:27:31.801Z,22.20
2022-12-14T16:30:09.251Z,23.93
2022-12-14T16:32:37.946Z,19.07
2022-12-14T16:35:06.405Z,25.03
2022-12-14T16:37:37.211Z,24.20
2022-12-14T16:40:11.855Z,24.27
2022-12-14T16:42:45.470Z,24.70
2022-12-14T16:45:53.474Z,22.37
2022-12-14T16:48:23.469Z,22.17
2022-12-14T16:51:06.535Z,23.00
2022-12-14T16:53:49.873Z,24.10
2022-12-14T16:56:20.339Z,24.00
2022-12-14T16:58:53.604Z,25.17
2022-12-14T17:01:22.427Z,26.20
2022-12-14T17:04:00.117Z,29.20
2022-12-14T17:06:35.128Z,32.27
2022-12-14T17:09:06.625Z,27.17
2022-12-14T17:11:35.032Z,28.53
2022-12-14T17:14:03.639Z,31.03
2022-12-14T17:16:32.199Z,28.67
2022-12-14T17:19:00.719Z,27.40
2022-12-14T17:21:34.346Z,29.73
2022-12-14T17:24:02.948Z,28.40
2022-12-14T17:26:33.849Z,26.27
2022-12-14T17:29:02.250Z,30.33
2022-12-14T17:31:30.681Z,26.80
2022-12-14T17:33:59.707Z,26.97
2022-12-14T17:36:28.277Z,26.10
2022-12-14T17:38:57.048Z,28.07
2022-12-14T17:41:30.145Z,26.27
2022-12-14T17:44:00.844Z,28.60
2022-12-14T17:46:29.699Z,25.50
2022-12-14T17:49:02.902Z,26.80
2022-12-14T17:51:55.915Z,28.53
2022-12-14T17:54:29.300Z,25.53
2022-12-14T17:57:00.109Z,29.10
2022-12-14T17:59:31.275Z,29.23
2022-12-14T18:02:01.526Z,27.23
2022-12-14T18:04:30.668Z,28.37
2022-12-14T18:06:59.628Z,28.93
2022-12-14T18:09:38.535Z,27.73
2022-12-14T18:12:23.207Z,30.40
2022-12-14T18:14:53.837Z,33.43
2022-12-14T18:17:23.251Z,29.17
2022-12-14T18:19:51.402Z,25.47
2022-12-14T18:22:19.674Z,24.33
2022-12-14T18:24:49.301Z,30.20
2022-12-14T18:27:17.802Z,30.73
2022-12-14T18:29:46.361Z,29.20
2022-12-14T18:32:16.585Z,26.33
2022-12-14T18:34:44.864Z,28.27
2022-12-14T18:37:22.850Z,29.20
2022-12-14T18:39:54.503Z,30.53
2022-12-14T18:42:23.205Z,29.20
2022-12-14T18:44:51.283Z,28.83
2022-12-14T18:47:41.314Z,28.20
2022-12-14T18:50:09.396Z,32.60
2022-12-14T18:52:37.684Z,30.43
2022-12-14T18:55:07.168Z,32.80
2022-12-14T18:57:35.639Z,34.97
2022-12-14T19:00:06.737Z,35.10
2022-12-14T19:02:36.608Z,31.20
2022-12-14T19:05:05.386Z,32.87
2022-12-14T19:07:33.650Z,34.77
2022-12-14T19:10:02.189Z,34.80
2022-12-14T19:12:30.910Z,31.33
2022-12-14T19:14:59.406Z,32.90
2022-12-14T19:17:27.944Z,35.50
2022-12-14T19:19:58.519Z,34.40
2022-12-14T19:22:29.344Z,31.23
2022-12-14T19:24:57.532Z,33.77
2022-12-14T19:28:08.370Z,36.97
2022-12-14T19:30:22.699Z,37.00
2022-12-14T19:32:52.258Z,34.07
2022-12-14T19:35:23.764Z,31.80
2022-12-14T19:37:52.123Z,32.63
2022-12-14T19:40:21.496Z,35.83
2022-12-14T19:42:50.476Z,33.87
2022-12-14T19:45:22.083Z,38.00
2022-12-14T19:47:50.410Z,34.47
2022-12-14T19:50:19.059Z,33.00
2022-12-14T19:52:49.155Z,34.57
2022-12-14T19:55:18.296Z,31.03
2022-12-14T19:57:46.774Z,38.97
2022-12-14T20:00:15.782Z,36.70
2022-12-14T20:02:44.955Z,31.50
2022-12-14T20:05:18.376Z,37.77
2022-12-14T20:07:48.600Z,38.03
2022-12-14T20:10:16.794Z,41.63
2022-12-14T20:12:45.131Z,45.13
2022-12-14T20:15:14.114Z,52.20
2022-12-14T20:17:42.263Z,49.17
2022-12-14T20:20:11.596Z,49.07
2022-12-14T20:22:39.716Z,54.93
2022-12-14T20:25:09.960Z,45.90
2022-12-14T20:27:40.923Z,46.03
2022-12-14T20:30:10.456Z,45.77
2022-12-14T20:32:40.831Z,41.07
2022-12-14T20:35:11.008Z,43.23
2022-12-14T20:37:39.172Z,43.90
2022-12-14T20:40:10.454Z,38.20
2022-12-14T20:42:40.682Z,35.83
2022-12-14T20:45:10.466Z,38.30
2022-12-14T20:47:38.573Z,37.17
2022-12-14T20:50:07.233Z,38.17
2022-12-14T20:52:35.411Z,36.23
2022-12-14T20:55:03.469Z,40.13
2022-12-14T20:57:34.069Z,36.30
2022-12-14T21:00:02.231Z,37.40
2022-12-14T21:02:30.719Z,40.03
2022-12-14T21:04:58.951Z,34.53
2022-12-14T21:07:27.282Z,35.63
2022-12-14T21:09:55.886Z,37.17
2022-12-14T21:12:23.090Z,35.43
2022-12-14T21:14:55.173Z,40.27
2022-12-14T21:17:25.532Z,34.83
2022-12-14T21:19:54.162Z,31.67
2022-12-14T21:22:25.863Z,35.93
2022-12-14T21:25:03.636Z,40.07
2022-12-14T21:27:33.393Z,35.03
2022-12-14T21:30:03.365Z,37.87
2022-12-14T21:32:31.986Z,36.13
2022-12-14T21:35:00.305Z,35.87
2022-12-14T21:37:28.649Z,33.93
2022-12-14T21:40:01.467Z,35.73
2022-12-14T21:42:28.763Z,32.17
2022-12-14T21:44:57.718Z,32.93
2022-12-14T21:47:28.920Z,34.13
2022-12-14T21:49:57.609Z,27.33
2022-12-14T21:52:28.218Z,32.57
2022-12-14T21:54:58.588Z,34.27
2022-12-14T21:57:49.439Z,31.10
2022-12-14T22:00:19.159Z,31.87
2022-12-14T22:02:49.089Z,35.27
2022-12-14T22:05:17.599Z,31.47
2022-12-14T22:07:46.778Z,30.70
2022-12-14T22:10:18.704Z,33.50
2022-12-14T22:12:49.517Z,32.73
2022-12-14T22:15:17.809Z,35.77
2022-12-14T22:17:46.309Z,32.07
2022-12-14T22:20:16.110Z,30.00
2022-12-14T22:22:45.395Z,32.97
2022-12-14T22:25:13.705Z,33.33
2022-12-14T22:27:42.033Z,33.57
2022-12-14T22:30:12.546Z,32.53
2022-12-14T22:32:42.304Z,32.07
2022-12-14T22:35:11.199Z,32.07
2022-12-14T22:37:40.885Z,30.43
2022-12-14T22:40:10.230Z,31.70
2022-12-14T22:42:38.478Z,28.13
2022-12-14T22:45:10.544Z,31.97
2022-12-14T22:47:38.740Z,30.37
2022-12-14T22:50:08.170Z,28.27
2022-12-14T22:52:36.299Z,30.47
2022-12-14T22:55:07.133Z,30.17
2022-12-14T22:57:41.455Z,33.70
2022-12-14T23:00:12.120Z,30.50
2022-12-14T23:02:44.175Z,31.73
2022-12-14T23:05:15.628Z,27.80
2022-12-14T23:07:43.785Z,30.57
2022-12-14T23:10:30.648Z,32.97
2022-12-14T23:13:15.998Z,24.97
2022-12-14T23:16:01.502Z,26.53
2022-12-14T23:18:47.061Z,24.60
2022-12-14T23:21:32.936Z,29.47
2022-12-14T23:24:18.285Z,23.63
2022-12-14T23:27:09.283Z,23.03
2022-12-14T23:29:55.857Z,25.30
2022-12-14T23:32:41.835Z,25.60
2022-12-14T23:35:27.205Z,32.27
2022-12-14T23:38:12.767Z,24.63
2022-12-14T23:40:58.634Z,28.07
2022-12-14T23:43:45.238Z,27.37
2022-12-14T23:46:30.822Z,29.30
2022-12-14T23:49:16.441Z,29.27
2022-12-14T23:52:02.600Z,29.97
2022-12-14T23:54:48.002Z,26.60
2022-12-14T23:57:34.028Z,30.13
